createdAt,value
2023-02-16T00:00:54.592Z,101851.88
2023-02-16T00:02:57.484Z,101854.63
2023-02-16T00:05:01.618Z,101849.22
2023-02-16T00:07:04.430Z,101844.34
2023-02-16T00:09:07.255Z,101842.56
2023-02-16T00:11:34.538Z,101836.03
2023-02-16T00:13:45.295Z,101841.63
2023-02-16T00:15:48.619Z,101825.66
2023-02-16T00:17:51.447Z,101832.91
2023-02-16T00:19:54.233Z,101838.41
2023-02-16T00:21:59.786Z,101846.75
2023-02-16T00:24:02.518Z,101849.72
2023-02-16T00:26:06.438Z,101857.06
2023-02-16T00:28:15.623Z,101862.88
2023-02-16T00:30:22.939Z,101861.44
2023-02-16T00:32:26.338Z,101861.59
2023-02-16T00:34:35.046Z,101855.00
2023-02-16T00:36:37.852Z,101855.75
2023-02-16T00:38:42.991Z,101849.50
2023-02-16T00:40:45.896Z,101855.41
2023-02-16T00:42:49.038Z,101854.09
2023-02-16T00:44:54.848Z,101854.00
2023-02-16T00:46:57.944Z,101863.47
2023-02-16T00:49:00.698Z,101865.53
2023-02-16T00:51:13.734Z,101856.75
2023-02-16T00:53:23.425Z,101857.75
2023-02-16T00:55:29.502Z,101858.66
2023-02-16T00:57:35.223Z,101843.81
2023-02-16T00:59:38.172Z,101851.97
2023-02-16T01:01:40.937Z,101847.34
2023-02-16T01:03:44.970Z,101850.09
2023-02-16T01:05:48.265Z,101858.44
2023-02-16T01:08:08.854Z,101861.44
2023-02-16T01:10:29.909Z,101858.47
2023-02-16T01:12:34.114Z,101866.03
2023-02-16T01:14:36.964Z,101861.44
2023-02-16T01:16:42.299Z,101858.88
2023-02-16T01:18:45.792Z,101850.81
2023-02-16T01:20:49.324Z,101843.47
2023-02-16T01:22:52.408Z,101847.50
2023-02-16T01:24:55.173Z,101853.38
2023-02-16T01:26:58.018Z,101854.84
2023-02-16T01:29:02.198Z,101859.44
2023-02-16T01:31:06.156Z,101862.47
2023-02-16T01:33:09.672Z,101856.06
2023-02-16T01:35:12.806Z,101849.16
2023-02-16T01:37:17.036Z,101858.09
2023-02-16T01:39:21.544Z,101853.31
2023-02-16T01:41:38.380Z,101854.72
2023-02-16T01:43:48.366Z,101845.34
2023-02-16T01:46:00.870Z,101852.38
2023-02-16T01:48:06.249Z,101852.38
2023-02-16T01:50:16.967Z,101853.69
2023-02-16T01:52:28.386Z,101844.56
2023-02-16T01:54:39.774Z,101846.56
2023-02-16T01:56:46.855Z,101836.47
2023-02-16T01:58:54.965Z,101840.78
2023-02-16T02:01:31.695Z,101837.09
2023-02-16T02:03:54.486Z,101823.75
2023-02-16T02:05:57.295Z,101825.75
2023-02-16T02:08:08.624Z,101818.63
2023-02-16T02:10:18.342Z,101812.66
2023-02-16T02:12:29.705Z,101804.00
2023-02-16T02:14:36.780Z,101799.00
2023-02-16T02:16:40.545Z,101797.84
2023-02-16T02:18:45.240Z,101810.91
2023-02-16T02:21:27.189Z,101800.69
2023-02-16T02:23:50.180Z,101796.78
2023-02-16T02:26:24.165Z,101801.56
2023-02-16T02:28:37.980Z,101812.59
2023-02-16T02:30:50.285Z,101810.47
2023-02-16T02:33:36.099Z,101816.44
2023-02-16T02:35:49.415Z,101801.75
2023-02-16T02:37:59.285Z,101801.31
2023-02-16T02:40:08.141Z,101801.03
2023-02-16T02:42:16.979Z,101803.56
2023-02-16T02:44:29.890Z,101802.66
2023-02-16T02:46:35.154Z,101807.78
2023-02-16T02:48:39.646Z,101810.84
2023-02-16T02:51:08.429Z,101804.50
2023-02-16T02:53:14.914Z,101791.91
2023-02-16T02:55:36.236Z,101798.53
2023-02-16T02:58:00.698Z,101805.56
2023-02-16T03:00:31.404Z,101807.63
2023-02-16T03:02:36.808Z,101799.19
2023-02-16T03:04:40.597Z,101803.22
2023-02-16T03:06:49.172Z,101804.09
2023-02-16T03:08:56.744Z,101800.44
2023-02-16T03:11:21.863Z,101808.88
2023-02-16T03:13:29.512Z,101797.16
2023-02-16T03:15:34.869Z,101792.25
2023-02-16T03:17:56.690Z,101792.63
2023-02-16T03:20:19.913Z,101795.84
2023-02-16T03:22:40.000Z,101795.84
2023-02-16T03:25:00.705Z,101795.84
2023-02-16T03:27:21.258Z,101791.91
2023-02-16T03:29:27.196Z,101799.94
2023-02-16T03:31:34.818Z,101808.88
2023-02-16T03:33:38.715Z,101815.56
2023-02-16T03:35:41.802Z,101810.16
2023-02-16T03:37:45.927Z,101811.41
2023-02-16T03:40:07.133Z,101815.88
2023-02-16T03:42:09.960Z,101796.50
2023-02-16T03:44:12.885Z,101799.19
2023-02-16T03:46:15.786Z,101790.31
2023-02-16T03:48:20.316Z,101803.22
2023-02-16T03:50:23.610Z,101806.44
2023-02-16T03:52:26.363Z,101809.88
2023-02-16T03:54:29.075Z,101805.31
2023-02-16T03:56:31.842Z,101803.53
2023-02-16T03:58:34.923Z,101799.81
2023-02-16T04:00:38.542Z,101805.97
2023-02-16T04:02:41.332Z,101803.53
2023-02-16T04:04:45.463Z,101800.66
2023-02-16T04:06:48.219Z,101801.19
2023-02-16T04:08:51.796Z,101799.63
2023-02-16T04:10:56.731Z,101801.09
2023-02-16T04:12:58.359Z,101803.00
2023-02-16T04:15:01.115Z,101810.16
2023-02-16T04:17:03.959Z,101805.03
2023-02-16T04:19:07.874Z,101815.91
2023-02-16T04:21:11.980Z,101808.66
2023-02-16T04:23:14.799Z,101805.44
2023-02-16T04:25:18.693Z,101809.97
2023-02-16T04:27:21.532Z,101808.56
2023-02-16T04:29:24.310Z,101805.56
2023-02-16T04:31:27.258Z,101808.69
2023-02-16T04:33:30.075Z,101811.88
2023-02-16T04:35:32.878Z,101804.91
2023-02-16T04:37:37.044Z,101803.47
2023-02-16T04:39:39.761Z,101801.78
2023-02-16T04:41:42.560Z,101810.16
2023-02-16T04:43:45.285Z,101805.94
2023-02-16T04:45:48.144Z,101805.03
2023-02-16T04:47:50.970Z,101809.03
2023-02-16T04:49:54.503Z,101806.59
2023-02-16T04:51:57.319Z,101808.59
2023-02-16T04:54:01.454Z,101806.03
2023-02-16T04:56:04.483Z,101804.03
2023-02-16T04:58:07.349Z,101800.16
2023-02-16T05:00:12.774Z,101798.34
2023-02-16T05:02:15.500Z,101799.50
2023-02-16T05:04:18.335Z,101804.41
2023-02-16T05:06:21.309Z,101804.16
2023-02-16T05:08:24.249Z,101792.78
2023-02-16T05:10:28.644Z,101800.91
2023-02-16T05:12:49.921Z,101794.59
2023-02-16T05:14:51.795Z,101790.13
2023-02-16T05:16:55.616Z,101794.38
2023-02-16T05:18:58.857Z,101792.91
2023-02-16T05:21:19.248Z,101796.34
2023-02-16T05:23:22.088Z,101806.81
2023-02-16T05:25:24.833Z,101797.91
2023-02-16T05:27:31.799Z,101793.13
2023-02-16T05:29:35.036Z,101798.03
2023-02-16T05:31:37.872Z,101800.16
2023-02-16T05:33:40.739Z,101799.22
2023-02-16T05:35:43.500Z,101802.16
2023-02-16T05:37:46.354Z,101806.84
2023-02-16T05:39:49.227Z,101808.16
2023-02-16T05:41:52.443Z,101806.38
2023-02-16T05:43:58.347Z,101800.38
2023-02-16T05:46:01.195Z,101812.31
2023-02-16T05:48:03.954Z,101811.28
2023-02-16T05:50:08.010Z,101811.06
2023-02-16T05:52:10.812Z,101806.38
2023-02-16T05:54:17.401Z,101815.09
2023-02-16T05:56:21.277Z,101801.50
2023-02-16T05:58:24.082Z,101806.63
2023-02-16T06:00:33.346Z,101804.50
2023-02-16T06:02:36.194Z,101810.19
2023-02-16T06:04:39.056Z,101813.97
2023-02-16T06:06:42.129Z,101815.09
2023-02-16T06:08:45.056Z,101820.22
2023-02-16T06:10:47.762Z,101817.53
2023-02-16T06:12:50.569Z,101814.88
2023-02-16T06:14:53.382Z,101819.66
2023-02-16T06:16:58.700Z,101824.69
2023-02-16T06:19:01.875Z,101821.31
2023-02-16T06:21:05.275Z,101813.75
2023-02-16T06:23:10.886Z,101820.66
2023-02-16T06:25:13.693Z,101820.88
2023-02-16T06:27:16.440Z,101825.22
2023-02-16T06:29:19.264Z,101831.47
2023-02-16T06:31:23.427Z,101831.34
2023-02-16T06:33:27.556Z,101827.47
2023-02-16T06:35:30.635Z,101832.47
2023-02-16T06:37:33.355Z,101831.34
2023-02-16T06:39:36.070Z,101838.03
2023-02-16T06:41:40.338Z,101840.16
2023-02-16T06:43:43.360Z,101841.28
2023-02-16T06:45:46.295Z,101844.75
2023-02-16T06:47:49.137Z,101850.53
2023-02-16T06:49:53.208Z,101855.44
2023-02-16T06:51:56.103Z,101853.53
2023-02-16T06:53:59.031Z,101851.41
2023-02-16T06:56:01.784Z,101860.66
2023-02-16T06:58:04.686Z,101852.06
2023-02-16T07:00:09.267Z,101846.06
2023-02-16T07:02:12.240Z,101854.09
2023-02-16T07:04:15.150Z,101858.44
2023-02-16T07:06:19.844Z,101856.88
2023-02-16T07:08:23.270Z,101857.78
2023-02-16T07:10:26.062Z,101856.22
2023-02-16T07:12:28.784Z,101858.53
2023-02-16T07:14:31.939Z,101864.78
2023-02-16T07:16:34.849Z,101859.91
2023-02-16T07:18:37.660Z,101861.66
2023-02-16T07:20:40.546Z,101856.88
2023-02-16T07:22:44.670Z,101863.13
2023-02-16T07:24:47.446Z,101865.47
2023-02-16T07:26:50.224Z,101862.00
2023-02-16T07:28:53.497Z,101860.34
2023-02-16T07:30:56.394Z,101858.00
2023-02-16T07:32:59.789Z,101856.41
2023-02-16T07:35:02.976Z,101863.44
2023-02-16T07:37:05.728Z,101860.78
2023-02-16T07:39:09.841Z,101858.44
2023-02-16T07:41:13.257Z,101858.31
2023-02-16T07:43:16.284Z,101864.34
2023-02-16T07:45:21.459Z,101846.97
2023-02-16T07:47:24.042Z,101844.97
2023-02-16T07:49:26.820Z,101855.31
2023-02-16T07:51:31.701Z,101852.97
2023-02-16T07:53:35.854Z,101852.53
2023-02-16T07:55:41.764Z,101850.28
2023-02-16T07:57:44.901Z,101849.63
2023-02-16T07:59:47.674Z,101853.06
2023-02-16T08:01:50.513Z,101849.06
2023-02-16T08:03:53.871Z,101857.22
2023-02-16T08:05:56.630Z,101859.09
2023-02-16T08:07:59.415Z,101867.47
2023-02-16T08:10:02.566Z,101869.81
2023-02-16T08:12:09.187Z,101864.00
2023-02-16T08:14:12.245Z,101874.47
2023-02-16T08:16:17.158Z,101862.44
2023-02-16T08:18:19.753Z,101867.13
2023-02-16T08:20:28.411Z,101868.13
2023-02-16T08:22:38.198Z,101861.44
2023-02-16T08:24:40.992Z,101860.13
2023-02-16T08:26:44.738Z,101862.34
2023-02-16T08:28:50.669Z,101871.13
2023-02-16T08:30:56.010Z,101863.75
2023-02-16T08:33:00.996Z,101858.84
2023-02-16T08:35:03.643Z,101861.91
2023-02-16T08:37:06.647Z,101859.09
2023-02-16T08:39:15.832Z,101853.50
2023-02-16T08:41:19.039Z,101849.63
2023-02-16T08:43:22.741Z,101857.88
2023-02-16T08:45:26.953Z,101865.69
2023-02-16T08:47:29.921Z,101857.44
2023-02-16T08:49:32.958Z,101855.63
2023-02-16T08:51:38.698Z,101861.44
2023-02-16T08:53:41.560Z,101861.97
2023-02-16T08:55:52.605Z,101859.94
2023-02-16T08:57:55.399Z,101855.81
2023-02-16T09:00:12.086Z,101861.59
2023-02-16T09:02:18.096Z,101852.66
2023-02-16T09:04:21.426Z,101860.16
2023-02-16T09:06:24.307Z,101860.22
2023-02-16T09:08:27.175Z,101864.94
2023-02-16T09:10:29.952Z,101858.59
2023-02-16T09:12:35.309Z,101867.50
2023-02-16T09:14:38.197Z,101874.53
2023-02-16T09:16:45.429Z,101872.41
2023-02-16T09:18:50.838Z,101878.19
2023-02-16T09:20:53.627Z,101880.75
2023-02-16T09:22:56.610Z,101881.00
2023-02-16T09:24:59.524Z,101874.69
2023-02-16T09:27:02.835Z,101866.44
2023-02-16T09:29:06.997Z,101862.13
2023-02-16T09:31:11.535Z,101854.66
2023-02-16T09:33:14.891Z,101861.47
2023-02-16T09:35:19.126Z,101865.91
2023-02-16T09:37:22.484Z,101864.56
2023-02-16T09:39:25.291Z,101864.63
2023-02-16T09:41:34.875Z,101867.03
2023-02-16T09:43:50.585Z,101858.41
2023-02-16T09:45:54.851Z,101860.59
2023-02-16T09:47:59.375Z,101855.94
2023-02-16T09:50:05.100Z,101855.56
2023-02-16T09:52:18.849Z,101854.81
2023-02-16T09:54:34.635Z,101851.06
2023-02-16T09:56:41.123Z,101846.91
2023-02-16T09:58:48.846Z,101842.00
2023-02-16T10:00:55.172Z,101835.56
2023-02-16T10:03:02.897Z,101835.38
2023-02-16T10:05:20.160Z,101830.53
2023-02-16T10:07:33.476Z,101838.22
2023-02-16T10:09:37.028Z,101832.03
2023-02-16T10:11:46.620Z,101827.19
2023-02-16T10:13:54.783Z,101821.94
2023-02-16T10:15:59.209Z,101821.84
2023-02-16T10:18:07.393Z,101823.22
2023-02-16T10:20:14.694Z,101830.00
2023-02-16T10:22:21.543Z,101824.22
2023-02-16T10:24:27.037Z,101821.41
2023-02-16T10:26:35.318Z,101819.16
2023-02-16T10:28:43.436Z,101824.75
2023-02-16T10:30:51.895Z,101834.44
2023-02-16T10:32:57.667Z,101828.94
2023-02-16T10:35:11.307Z,101821.00
2023-02-16T10:37:40.664Z,101823.75
2023-02-16T10:39:52.041Z,101821.09
2023-02-16T10:42:03.491Z,101812.81
2023-02-16T10:44:14.170Z,101814.97
2023-02-16T10:46:23.164Z,101804.41
2023-02-16T10:48:26.243Z,101801.69
2023-02-16T10:50:34.154Z,101800.72
2023-02-16T10:52:40.481Z,101795.06
2023-02-16T10:54:44.581Z,101785.22
2023-02-16T10:56:54.092Z,101779.56
2023-02-16T10:58:58.393Z,101779.97
2023-02-16T11:01:08.792Z,101782.00
2023-02-16T11:03:13.761Z,101778.75
2023-02-16T11:05:38.030Z,101780.03
2023-02-16T11:07:53.684Z,101774.72
2023-02-16T11:10:01.933Z,101777.84
2023-02-16T11:12:15.940Z,101773.63
2023-02-16T11:14:23.045Z,101765.28
2023-02-16T11:16:27.046Z,101767.53
2023-02-16T11:18:34.051Z,101764.50
2023-02-16T11:20:53.916Z,101756.31
2023-02-16T11:23:14.880Z,101749.34
2023-02-16T11:25:25.834Z,101753.44
2023-02-16T11:27:29.812Z,101748.28
2023-02-16T11:29:32.918Z,101747.53
2023-02-16T11:31:39.190Z,101743.25
2023-02-16T11:33:43.990Z,101733.31
2023-02-16T11:35:47.746Z,101730.03
2023-02-16T11:37:51.025Z,101735.63
2023-02-16T11:39:56.678Z,101728.88
2023-02-16T11:42:04.553Z,101721.41
2023-02-16T11:44:27.098Z,101716.19
2023-02-16T11:46:40.745Z,101709.63
2023-02-16T11:48:45.012Z,101701.19
2023-02-16T11:50:58.383Z,101699.56
2023-02-16T11:53:16.696Z,101685.97
2023-02-16T11:55:27.251Z,101694.00
2023-02-16T11:57:33.895Z,101692.00
2023-02-16T11:59:38.909Z,101690.78
2023-02-16T12:01:54.350Z,101690.47
2023-02-16T12:04:15.004Z,101677.75
2023-02-16T12:06:32.082Z,101691.03
2023-02-16T12:08:48.131Z,101688.13
2023-02-16T12:11:07.515Z,101684.38
2023-02-16T12:13:22.951Z,101680.34
2023-02-16T12:15:31.611Z,101691.06
2023-02-16T12:17:50.621Z,101687.28
2023-02-16T12:20:01.618Z,101685.72
2023-02-16T12:22:20.075Z,101673.06
2023-02-16T12:24:37.076Z,101674.94
2023-02-16T12:26:47.695Z,101668.66
2023-02-16T12:29:01.459Z,101673.91
2023-02-16T12:31:17.312Z,101662.84
2023-02-16T12:33:36.374Z,101667.16
2023-02-16T12:35:51.625Z,101658.03
2023-02-16T12:38:03.641Z,101648.72
2023-02-16T12:40:21.306Z,101647.47
2023-02-16T12:42:41.225Z,101647.88
2023-02-16T12:44:49.180Z,101649.78
2023-02-16T12:47:01.900Z,101638.84
2023-02-16T12:49:13.374Z,101634.56
2023-02-16T12:51:20.312Z,101640.03
2023-02-16T12:53:28.610Z,101629.66
2023-02-16T12:55:36.914Z,101630.00
2023-02-16T12:57:58.088Z,101625.97
2023-02-16T13:00:05.247Z,101625.31
2023-02-16T13:02:16.182Z,101617.28
2023-02-16T13:04:24.906Z,101618.94
2023-02-16T13:06:33.872Z,101608.13
2023-02-16T13:08:42.303Z,101607.69
2023-02-16T13:10:55.791Z,101606.19
2023-02-16T13:13:03.588Z,101598.63
2023-02-16T13:15:14.204Z,101590.19
2023-02-16T13:17:21.511Z,101590.25
2023-02-16T13:19:25.755Z,101591.13
2023-02-16T13:22:08.985Z,101583.47
2023-02-16T13:24:18.406Z,101590.56
2023-02-16T13:26:36.339Z,101581.88
2023-02-16T13:28:54.727Z,101580.13
2023-02-16T13:31:15.433Z,101572.59
2023-02-16T13:33:37.423Z,101575.00
2023-02-16T13:36:05.025Z,101569.81
2023-02-16T13:38:27.864Z,101575.34
2023-02-16T13:41:00.657Z,101565.06
2023-02-16T13:43:14.642Z,101558.16
2023-02-16T13:45:21.786Z,101550.50
2023-02-16T13:47:28.886Z,101554.16
2023-02-16T13:49:36.210Z,101552.66
2023-02-16T13:51:44.573Z,101551.19
2023-02-16T13:53:55.618Z,101546.16
2023-02-16T13:56:17.644Z,101538.91
2023-02-16T13:58:32.568Z,101538.06
2023-02-16T14:00:38.423Z,101537.19
2023-02-16T14:02:58.430Z,101540.91
2023-02-16T14:05:04.119Z,101550.69
2023-02-16T14:07:33.302Z,101539.72
2023-02-16T14:09:48.729Z,101543.44
2023-02-16T14:12:19.691Z,101537.44
2023-02-16T14:14:31.124Z,101540.13
2023-02-16T14:16:34.999Z,101539.31
2023-02-16T14:18:43.797Z,101533.19
2023-02-16T14:20:46.636Z,101527.19
2023-02-16T14:22:51.862Z,101528.03
2023-02-16T14:24:57.061Z,101530.53
2023-02-16T14:27:02.743Z,101534.06
2023-02-16T14:29:18.460Z,101523.56
2023-02-16T14:31:23.815Z,101523.47
2023-02-16T14:33:41.377Z,101521.66
2023-02-16T14:35:48.479Z,101522.66
2023-02-16T14:37:57.881Z,101522.56
2023-02-16T14:40:42.313Z,101524.31
2023-02-16T14:42:52.195Z,101530.34
2023-02-16T14:45:11.950Z,101531.16
2023-02-16T14:47:28.001Z,101529.47
2023-02-16T14:49:59.141Z,101525.94
2023-02-16T14:52:49.944Z,101526.91
2023-02-16T14:55:12.210Z,101523.19
2023-02-16T14:57:17.005Z,101523.28
2023-02-16T14:59:27.547Z,101520.50
2023-02-16T15:01:40.253Z,101517.97
2023-02-16T15:03:50.170Z,101523.91
2023-02-16T15:05:58.167Z,101512.56
2023-02-16T15:08:10.476Z,101511.75
2023-02-16T15:10:15.663Z,101518.72
2023-02-16T15:12:25.176Z,101521.41
2023-02-16T15:14:29.362Z,101525.81
2023-02-16T15:16:33.991Z,101527.34
2023-02-16T15:18:40.889Z,101520.50
2023-02-16T15:20:46.095Z,101522.19
2023-02-16T15:22:53.390Z,101521.41
2023-02-16T15:24:59.629Z,101522.81
2023-02-16T15:27:02.766Z,101522.53
2023-02-16T15:29:26.351Z,101528.88
2023-02-16T15:31:33.378Z,101527.19
2023-02-16T15:33:38.936Z,101528.00
2023-02-16T15:35:44.084Z,101524.66
2023-02-16T15:37:46.900Z,101524.56
2023-02-16T15:40:08.675Z,101522.06
2023-02-16T15:42:21.558Z,101528.13
2023-02-16T15:44:31.452Z,101519.50
2023-02-16T15:46:36.965Z,101516.69
2023-02-16T15:48:40.993Z,101520.84
2023-02-16T15:50:44.504Z,101516.50
2023-02-16T15:52:48.669Z,101516.28
2023-02-16T15:54:51.849Z,101520.41
2023-02-16T15:56:56.373Z,101511.66
2023-02-16T15:59:02.601Z,101511.59
2023-02-16T16:01:05.873Z,101509.03
2023-02-16T16:03:13.590Z,101502.19
2023-02-16T16:05:23.990Z,101505.63
2023-02-16T16:07:29.204Z,101513.25
2023-02-16T16:09:33.829Z,101506.25
2023-02-16T16:11:38.165Z,101500.25
2023-02-16T16:13:42.433Z,101499.28
2023-02-16T16:15:50.651Z,101509.47
2023-02-16T16:17:56.848Z,101511.91
2023-02-16T16:20:18.923Z,101507.47
2023-02-16T16:22:39.272Z,101514.28
2023-02-16T16:24:45.202Z,101506.31
2023-02-16T16:26:55.239Z,101516.78
2023-02-16T16:28:58.171Z,101511.50
2023-02-16T16:31:09.856Z,101511.38
2023-02-16T16:33:17.728Z,101518.25
2023-02-16T16:35:22.723Z,101514.75
2023-02-16T16:37:29.100Z,101512.97
2023-02-16T16:39:33.831Z,101520.66
2023-02-16T16:41:37.420Z,101524.81
2023-02-16T16:43:54.329Z,101529.91
2023-02-16T16:46:11.998Z,101522.84
2023-02-16T16:48:20.837Z,101530.59
2023-02-16T16:50:33.005Z,101534.91
2023-02-16T16:52:42.074Z,101531.56
2023-02-16T16:54:46.330Z,101533.03
2023-02-16T16:56:49.105Z,101528.63
2023-02-16T16:58:53.279Z,101529.53
2023-02-16T17:00:56.067Z,101525.97
2023-02-16T17:02:59.189Z,101532.94
2023-02-16T17:05:03.358Z,101536.41
2023-02-16T17:07:06.587Z,101533.75
2023-02-16T17:09:09.328Z,101538.03
2023-02-16T17:11:16.968Z,101533.66
2023-02-16T17:13:22.210Z,101545.84
2023-02-16T17:15:36.545Z,101539.59
2023-02-16T17:17:39.697Z,101549.78
2023-02-16T17:19:42.591Z,101544.38
2023-02-16T17:21:48.138Z,101543.47
2023-02-16T17:23:53.430Z,101540.00
2023-02-16T17:25:56.386Z,101544.28
2023-02-16T17:27:59.143Z,101537.28
2023-02-16T17:30:01.971Z,101532.88
2023-02-16T17:32:05.111Z,101537.00
2023-02-16T17:34:08.648Z,101535.06
2023-02-16T17:36:15.530Z,101531.44
2023-02-16T17:38:21.672Z,101527.81
2023-02-16T17:40:25.413Z,101523.19
2023-02-16T17:42:28.356Z,101515.25
2023-02-16T17:44:31.184Z,101527.03
2023-02-16T17:46:34.077Z,101535.53
2023-02-16T17:48:37.473Z,101530.13
2023-02-16T17:50:40.243Z,101539.31
2023-02-16T17:52:43.986Z,101543.69
2023-02-16T17:54:48.158Z,101547.22
2023-02-16T17:56:50.973Z,101543.69
2023-02-16T17:58:53.867Z,101546.41
2023-02-16T18:00:56.710Z,101547.31
2023-02-16T18:02:59.489Z,101551.81
2023-02-16T18:05:02.379Z,101545.03
2023-02-16T18:07:05.211Z,101546.72
2023-02-16T18:09:08.051Z,101552.78
2023-02-16T18:11:12.557Z,101553.69
2023-02-16T18:13:15.891Z,101550.22
2023-02-16T18:15:19.010Z,101538.84
2023-02-16T18:17:21.821Z,101547.47
2023-02-16T18:19:24.654Z,101543.09
2023-02-16T18:21:27.448Z,101533.47
2023-02-16T18:23:31.187Z,101543.00
2023-02-16T18:25:34.355Z,101536.78
2023-02-16T18:27:38.459Z,101534.19
2023-02-16T18:29:41.310Z,101527.31
2023-02-16T18:31:45.225Z,101529.00
2023-02-16T18:33:48.027Z,101530.72
2023-02-16T18:35:53.638Z,101541.81
2023-02-16T18:37:56.381Z,101532.31
2023-02-16T18:39:59.226Z,101529.59
2023-02-16T18:42:02.031Z,101530.44
2023-02-16T18:44:07.133Z,101525.25
2023-02-16T18:46:10.821Z,101527.91
2023-02-16T18:48:14.086Z,101522.72
2023-02-16T18:50:16.960Z,101528.84
2023-02-16T18:52:20.138Z,101523.66
2023-02-16T18:54:24.164Z,101526.13
2023-02-16T18:56:27.560Z,101524.47
2023-02-16T18:58:30.486Z,101523.53
2023-02-16T19:00:34.676Z,101521.94
2023-02-16T19:02:37.678Z,101517.41
2023-02-16T19:04:40.684Z,101520.00
2023-02-16T19:06:43.530Z,101520.00
2023-02-16T19:08:47.421Z,101521.66
2023-02-16T19:10:50.259Z,101522.59
2023-02-16T19:12:53.196Z,101531.22
2023-02-16T19:14:55.947Z,101527.00
2023-02-16T19:17:00.099Z,101530.44
2023-02-16T19:19:02.857Z,101530.44
2023-02-16T19:21:07.496Z,101537.31
2023-02-16T19:23:10.321Z,101533.81
2023-02-16T19:25:13.123Z,101534.63
2023-02-16T19:27:15.983Z,101539.00
2023-02-16T19:29:18.753Z,101537.31
2023-02-16T19:31:23.612Z,101533.03
2023-02-16T19:33:27.704Z,101538.16
2023-02-16T19:35:30.716Z,101535.47
2023-02-16T19:37:33.476Z,101529.44
2023-02-16T19:39:36.439Z,101532.88
2023-02-16T19:41:41.528Z,101532.09
2023-02-16T19:43:44.746Z,101537.22
2023-02-16T19:45:47.699Z,101536.41
2023-02-16T19:47:51.984Z,101537.31
2023-02-16T19:49:56.078Z,101544.22
2023-02-16T19:52:02.263Z,101547.69
2023-02-16T19:54:05.280Z,101548.59
2023-02-16T19:56:10.814Z,101543.59
2023-02-16T19:58:13.612Z,101549.53
2023-02-16T20:00:16.727Z,101550.41
2023-02-16T20:02:19.617Z,101558.13
2023-02-16T20:04:22.861Z,101549.53
2023-02-16T20:06:31.673Z,101559.09
2023-02-16T20:08:34.467Z,101557.31
2023-02-16T20:10:41.055Z,101560.78
2023-02-16T20:12:46.221Z,101554.72
2023-02-16T20:14:49.085Z,101557.38
2023-02-16T20:16:51.910Z,101552.19
2023-02-16T20:18:56.092Z,101555.59
2023-02-16T20:20:59.930Z,101550.34
2023-02-16T20:23:04.071Z,101552.06
2023-02-16T20:25:07.325Z,101549.47
2023-02-16T20:27:10.059Z,101540.88
2023-02-16T20:29:15.378Z,101535.81
2023-02-16T20:31:21.857Z,101537.50
2023-02-16T20:33:24.943Z,101530.50
2023-02-16T20:35:27.810Z,101532.97
2023-02-16T20:37:31.121Z,101530.44
2023-02-16T20:39:35.331Z,101533.97
2023-02-16T20:41:38.224Z,101534.13
2023-02-16T20:43:41.573Z,101527.91
2023-02-16T20:45:44.424Z,101532.38
2023-02-16T20:47:47.200Z,101528.06
2023-02-16T20:49:49.964Z,101526.56
2023-02-16T20:51:52.804Z,101528.25
2023-02-16T20:53:55.577Z,101527.38
2023-02-16T20:56:03.520Z,101529.13
2023-02-16T20:58:06.384Z,101529.06
2023-02-16T21:00:13.226Z,101525.66
2023-02-16T21:02:16.098Z,101528.34
2023-02-16T21:04:20.012Z,101528.34
2023-02-16T21:06:23.489Z,101530.00
2023-02-16T21:08:26.433Z,101523.09
2023-02-16T21:10:29.192Z,101520.50
2023-02-16T21:12:33.373Z,101519.63
2023-02-16T21:14:37.173Z,101520.50
2023-02-16T21:16:40.896Z,101520.69
2023-02-16T21:18:43.886Z,101523.16
2023-02-16T21:20:46.632Z,101514.78
2023-02-16T21:22:49.550Z,101514.78
2023-02-16T21:24:52.725Z,101513.13
2023-02-16T21:26:55.549Z,101512.88
2023-02-16T21:28:59.936Z,101511.16
2023-02-16T21:31:04.944Z,101507.59
2023-02-16T21:33:07.853Z,101504.28
2023-02-16T21:35:10.736Z,101492.19
2023-02-16T21:37:13.596Z,101500.22
2023-02-16T21:39:16.515Z,101501.19
2023-02-16T21:41:28.598Z,101493.63
2023-02-16T21:43:31.385Z,101494.69
2023-02-16T21:45:35.659Z,101492.03
2023-02-16T21:47:56.018Z,101491.09
2023-02-16T21:49:59.336Z,101484.97
2023-02-16T21:52:02.299Z,101489.28
2023-02-16T21:54:06.673Z,101492.69
2023-02-16T21:56:17.975Z,101489.38
2023-02-16T21:58:21.372Z,101494.69
2023-02-16T22:00:24.492Z,101490.41
2023-02-16T22:02:28.592Z,101499.31
2023-02-16T22:04:31.343Z,101492.19
2023-02-16T22:06:36.075Z,101490.53
2023-02-16T22:08:38.921Z,101486.09
2023-02-16T22:10:42.079Z,101481.72
2023-02-16T22:12:44.961Z,101481.19
2023-02-16T22:14:47.879Z,101484.50
2023-02-16T22:16:51.033Z,101469.66
2023-02-16T22:18:58.690Z,101473.09
2023-02-16T22:21:03.118Z,101467.97
2023-02-16T22:23:05.927Z,101461.97
2023-02-16T22:25:09.000Z,101459.31
2023-02-16T22:27:11.867Z,101464.56
2023-02-16T22:29:15.157Z,101468.13
2023-02-16T22:31:19.070Z,101463.75
2023-02-16T22:33:22.121Z,101465.53
2023-02-16T22:35:26.214Z,101461.97
2023-02-16T22:37:28.985Z,101464.63
2023-02-16T22:39:32.202Z,101466.44
2023-02-16T22:41:35.953Z,101470.72
2023-02-16T22:43:39.747Z,101457.00
2023-02-16T22:45:42.645Z,101466.28
2023-02-16T22:47:45.679Z,101470.59
2023-02-16T22:49:48.470Z,101469.75
2023-02-16T22:51:52.645Z,101461.25
2023-02-16T22:53:55.600Z,101458.66
2023-02-16T22:55:58.432Z,101459.72
2023-02-16T22:58:01.270Z,101469.47
2023-02-16T23:00:06.225Z,101468.38
2023-02-16T23:02:09.143Z,101472.78
2023-02-16T23:04:14.363Z,101474.66
2023-02-16T23:06:19.880Z,101478.13
2023-02-16T23:08:24.114Z,101477.22
2023-02-16T23:10:26.856Z,101481.59
2023-02-16T23:12:29.682Z,101473.16
2023-02-16T23:14:32.438Z,101476.50
2023-02-16T23:16:35.324Z,101473.91
2023-02-16T23:18:38.657Z,101468.53
2023-02-16T23:20:41.501Z,101473.88
2023-02-16T23:22:44.344Z,101472.94
2023-02-16T23:25:09.630Z,101466.94
2023-02-16T23:27:12.485Z,101467.69
2023-02-16T23:29:15.517Z,101465.94
2023-02-16T23:31:18.903Z,101468.53
2023-02-16T23:33:21.736Z,101467.66
2023-02-16T23:35:24.541Z,101463.34
2023-02-16T23:37:30.338Z,101459.75
2023-02-16T23:39:33.078Z,101466.78
2023-02-16T23:41:37.733Z,101459.00
2023-02-16T23:43:40.728Z,101468.47
2023-02-16T23:45:43.555Z,101465.16
2023-02-16T23:47:46.593Z,101464.38
2023-02-16T23:49:49.458Z,101463.38
2023-02-16T23:51:52.300Z,101465.94
2023-02-16T23:53:55.758Z,101457.28
2023-02-16T23:55:59.924Z,101457.22
2023-02-16T23:58:04.006Z,101465.94
